Time;durP1;ratioP1;P1;durP2;ratioP2;P2;SDS_P1;SDS_P2;PMS_P1;PMS_P2;Temp;Humidity;BMP_temperature;BMP_pressure;BME280_temperature;BME280_humidity;BME280_pressure;Samples;Min_cycle;Max_cycle;Signal;HPM_P1;HPM_P2
2023/04/12 00:00:43;;;;;;;8.00;1.83;;;10.60;99.90;;;;;;6191748;23;20005;-86
2023/04/12 00:03:09;;;;;;;10.65;2.40;;;10.60;99.90;;;;;;6191638;23;20043;-86
2023/04/12 00:05:36;;;;;;;8.73;2.03;;;10.60;99.90;;;;;;6167095;23;20063;-86
2023/04/12 00:08:03;;;;;;;10.75;2.65;;;10.50;99.90;;;;;;6166401;23;20091;-86
2023/04/12 00:10:29;;;;;;;8.25;2.00;;;10.50;99.90;;;;;;6191095;23;19996;-86
2023/04/12 00:12:55;;;;;;;8.13;2.20;;;10.50;99.90;;;;;;6166232;23;20060;-86
2023/04/12 00:15:21;;;;;;;9.07;1.95;;;10.40;99.90;;;;;;6167490;23;20001;-86
2023/04/12 00:17:46;;;;;;;10.65;2.30;;;10.30;99.90;;;;;;6178245;23;20386;-86
2023/04/12 00:20:15;;;;;;;7.38;2.25;;;10.30;99.90;;;;;;6192160;23;20307;-86
2023/04/12 00:22:41;;;;;;;12.10;2.70;;;10.20;99.90;;;;;;6205860;23;20453;-86
2023/04/12 00:25:07;;;;;;;8.77;2.42;;;10.20;99.90;;;;;;6214817;23;20001;-87
2023/04/12 00:27:33;;;;;;;9.93;2.38;;;10.10;99.90;;;;;;6209828;23;20001;-87
2023/04/12 00:29:59;;;;;;;10.20;2.35;;;10.10;99.90;;;;;;6190934;23;20008;-87
2023/04/12 00:32:25;;;;;;;9.02;2.50;;;10.00;99.90;;;;;;6191382;23;20016;-87
2023/04/12 00:34:51;;;;;;;13.30;2.60;;;10.00;99.90;;;;;;6166012;23;20005;-86
2023/04/12 00:37:17;;;;;;;7.63;2.20;;;10.00;99.90;;;;;;6166436;23;20132;-85
2023/04/12 00:39:43;;;;;;;17.88;4.38;;;10.00;99.90;;;;;;6165921;23;20035;-86
2023/04/12 00:42:08;;;;;;;12.52;2.58;;;10.00;99.90;;;;;;6217115;23;20300;-86
2023/04/12 00:44:34;;;;;;;8.77;2.53;;;9.90;99.90;;;;;;6191242;23;20001;-86
2023/04/12 00:47:02;;;;;;;8.73;2.60;;;9.80;99.90;;;;;;6185915;23;20418;-86
2023/04/12 00:49:29;;;;;;;7.57;1.98;;;9.80;99.90;;;;;;6166004;23;20016;-86
2023/04/12 00:52:07;;;;;;;8.77;1.60;;;9.70;99.90;;;;;;6190281;23;20326;-86
2023/04/12 00:54:36;;;;;;;5.53;1.67;;;9.70;99.90;;;;;;6190367;23;20000;-86
2023/04/12 00:57:02;;;;;;;8.18;1.77;;;9.70;99.90;;;;;;6190390;23;19996;-86
2023/04/12 00:59:28;;;;;;;8.65;1.90;;;9.60;99.90;;;;;;6165406;23;20015;-86
2023/04/12 01:01:55;;;;;;;5.80;1.50;;;9.60;99.90;;;;;;6190191;23;20092;-86
2023/04/12 01:04:22;;;;;;;6.85;1.48;;;9.50;99.90;;;;;;6165959;23;20005;-87
2023/04/12 01:07:16;;;;;;;8.70;1.73;;;9.50;99.90;;;;;;6190459;23;20050;-86
2023/04/12 01:09:57;;;;;;;3.88;1.45;;;9.50;99.90;;;;;;6190151;23;20091;-86
2023/04/12 01:12:42;;;;;;;7.72;1.67;;;9.50;99.90;;;;;;6190197;23;20051;-86
2023/04/12 01:15:11;;;;;;;8.13;2.00;;;9.50;99.90;;;;;;6190365;23;20007;-85
2023/04/12 01:18:15;;;;;;;8.38;1.60;;;9.50;99.90;;;;;;6190730;23;20008;-86
2023/04/12 01:20:52;;;;;;;7.57;2.03;;;9.50;99.90;;;;;;6216708;23;20078;-87
2023/04/12 01:23:45;;;;;;;7.95;2.35;;;9.50;99.90;;;;;;6217336;23;20019;-87
2023/04/12 01:26:20;;;;;;;9.05;1.30;;;9.50;99.90;;;;;;6191789;23;20044;-87
2023/04/12 01:28:49;;;;;;;4.22;1.50;;;9.50;99.90;;;;;;6192000;23;20012;-87
2023/04/12 01:31:16;;;;;;;5.75;1.50;;;9.50;99.90;;;;;;6191932;23;20427;-86
2023/04/12 01:33:44;;;;;;;5.13;1.42;;;9.40;99.90;;;;;;6192120;23;20028;-86
2023/04/12 01:36:16;;;;;;;6.75;1.98;;;9.40;99.90;;;;;;6167248;23;20099;-86
2023/04/12 01:38:42;;;;;;;7.75;1.60;;;9.40;99.90;;;;;;6219068;23;20005;-86
2023/04/12 01:41:08;;;;;;;7.35;1.77;;;9.30;99.90;;;;;;6167407;23;20029;-86
2023/04/12 01:43:42;;;;;;;5.85;1.70;;;9.40;99.90;;;;;;6166831;23;20059;-86
2023/04/12 01:46:11;;;;;;;8.00;1.52;;;9.40;99.90;;;;;;6191708;23;20013;-86
2023/04/12 01:48:38;;;;;;;6.63;1.60;;;9.30;99.90;;;;;;6192324;23;20009;-85
2023/04/12 01:51:17;;;;;;;9.77;1.80;;;9.30;99.90;;;;;;6167118;23;20008;-85
2023/04/12 01:54:01;;;;;;;7.10;2.63;;;9.30;99.90;;;;;;6192267;23;20029;-86
2023/04/12 01:56:30;;;;;;;7.68;1.98;;;9.30;99.90;;;;;;6192003;23;20011;-85
2023/04/12 01:58:59;;;;;;;6.70;1.80;;;9.30;99.90;;;;;;6191850;23;20010;-87
2023/04/12 02:01:27;;;;;;;8.10;1.90;;;9.30;99.90;;;;;;6191961;23;20419;-85
2023/04/12 02:03:55;;;;;;;6.90;1.80;;;9.30;99.90;;;;;;6191845;23;20012;-85
2023/04/12 02:06:22;;;;;;;12.02;2.38;;;9.30;99.90;;;;;;6191896;23;20008;-85
2023/04/12 02:08:48;;;;;;;7.72;2.20;;;9.30;99.90;;;;;;6218674;23;20005;-85
2023/04/12 02:11:14;;;;;;;11.13;2.05;;;9.30;99.90;;;;;;6191663;23;20383;-85
2023/04/12 02:13:40;;;;;;;10.45;2.13;;;9.40;99.90;;;;;;6167174;23;20005;-85
2023/04/12 02:16:09;;;;;;;7.63;1.77;;;9.40;99.90;;;;;;6167192;23;20442;-86
2023/04/12 02:18:35;;;;;;;7.63;1.83;;;9.40;99.90;;;;;;6167395;23;20050;-85
2023/04/12 02:21:01;;;;;;;6.22;1.63;;;9.40;99.90;;;;;;6191891;23;20079;-86
2023/04/12 02:23:26;;;;;;;7.32;1.70;;;9.30;99.90;;;;;;6166990;23;20430;-85
2023/04/12 02:25:52;;;;;;;7.40;1.80;;;9.30;99.90;;;;;;6173705;23;20001;-86
2023/04/12 02:28:22;;;;;;;4.65;1.67;;;9.30;99.90;;;;;;6190901;23;20063;-85
2023/04/12 02:30:48;;;;;;;9.73;2.15;;;9.30;99.90;;;;;;6166679;23;20012;-85
2023/04/12 02:33:14;;;;;;;9.38;1.92;;;9.30;99.90;;;;;;6166123;23;20326;-85
2023/04/12 02:35:40;;;;;;;8.32;2.28;;;9.30;99.90;;;;;;6191685;23;20005;-85
2023/04/12 02:38:07;;;;;;;8.27;1.80;;;9.30;99.90;;;;;;6166615;23;20334;-86
2023/04/12 02:40:42;;;;;;;7.38;1.95;;;9.30;99.90;;;;;;6191922;23;20013;-85
2023/04/12 02:43:08;;;;;;;4.55;1.40;;;9.30;99.90;;;;;;6166818;23;20361;-85
2023/04/12 02:45:35;;;;;;;3.45;1.50;;;9.20;99.90;;;;;;6166663;23;20005;-85
2023/04/12 02:48:01;;;;;;;7.20;1.80;;;9.20;99.90;;;;;;6191006;23;20419;-86
2023/04/12 02:50:27;;;;;;;7.28;1.60;;;9.30;99.90;;;;;;6166827;23;20054;-84
2023/04/12 02:52:53;;;;;;;9.32;1.88;;;9.20;99.90;;;;;;6166430;23;20051;-86
2023/04/12 02:55:18;;;;;;;5.45;1.63;;;9.30;99.90;;;;;;6191837;23;20005;-84
2023/04/12 02:57:44;;;;;;;10.52;2.20;;;9.20;99.90;;;;;;6194040;23;20135;-84
2023/04/12 03:00:11;;;;;;;6.18;2.10;;;9.20;99.90;;;;;;6206206;23;20001;-89
2023/04/12 03:02:37;;;;;;;7.15;1.95;;;9.20;99.90;;;;;;6213983;23;20004;-82
2023/04/12 03:05:03;;;;;;;9.13;1.55;;;9.20;99.90;;;;;;6208693;23;20024;-84
2023/04/12 03:07:29;;;;;;;7.15;2.13;;;9.20;99.90;;;;;;6180990;23;20020;-85
2023/04/12 03:09:55;;;;;;;5.18;1.95;;;9.20;99.90;;;;;;6170678;23;20063;-83
2023/04/12 03:12:21;;;;;;;6.55;1.67;;;9.20;99.90;;;;;;6217601;23;20423;-85
2023/04/12 03:14:47;;;;;;;8.30;1.55;;;9.20;99.90;;;;;;6191512;23;20011;-85
2023/04/12 03:17:12;;;;;;;5.95;1.77;;;9.20;99.90;;;;;;6191316;23;20344;-87
2023/04/12 03:19:38;;;;;;;8.50;2.35;;;9.20;99.90;;;;;;6166176;23;20331;-85
2023/04/12 03:22:05;;;;;;;6.97;1.90;;;9.20;99.90;;;;;;6190846;23;20173;-86
2023/04/12 03:24:34;;;;;;;4.13;1.92;;;9.20;99.90;;;;;;6166857;23;20088;-85
2023/04/12 03:27:05;;;;;;;4.63;1.67;;;9.20;99.90;;;;;;6166557;23;20322;-85
2023/04/12 03:29:31;;;;;;;5.90;1.80;;;9.20;99.90;;;;;;6190449;23;20013;-85
2023/04/12 03:31:58;;;;;;;4.00;1.52;;;9.20;99.90;;;;;;6166126;23;20443;-85
2023/04/12 03:34:26;;;;;;;7.10;1.67;;;9.30;99.90;;;;;;6190517;23;20002;-84
2023/04/12 03:36:54;;;;;;;5.97;1.95;;;9.20;99.90;;;;;;6190775;23;20007;-85
2023/04/12 03:39:19;;;;;;;7.28;1.80;;;9.20;99.90;;;;;;6190701;23;20326;-85
2023/04/12 03:41:45;;;;;;;8.35;1.70;;;9.20;99.90;;;;;;6166640;23;20008;-85
2023/04/12 03:44:11;;;;;;;8.48;1.77;;;9.20;99.90;;;;;;6165846;23;20059;-84
2023/04/12 03:46:36;;;;;;;5.55;1.65;;;9.20;99.90;;;;;;6190194;23;20435;-84
2023/04/12 03:49:02;;;;;;;9.98;1.73;;;9.10;99.90;;;;;;6190548;23;20009;-85
2023/04/12 03:51:29;;;;;;;6.80;1.92;;;9.10;99.90;;;;;;6165800;23;20023;-85
2023/04/12 03:53:55;;;;;;;5.35;1.55;;;9.10;99.90;;;;;;6166085;23;20001;-85
2023/04/12 03:56:21;;;;;;;8.65;1.45;;;9.10;99.90;;;;;;6166008;23;20488;-85
2023/04/12 03:58:46;;;;;;;7.40;1.77;;;9.00;99.90;;;;;;6164952;23;20020;-85
2023/04/12 04:01:12;;;;;;;9.98;1.70;;;9.00;99.90;;;;;;6190074;23;20430;-85
2023/04/12 04:03:41;;;;;;;3.92;1.33;;;9.00;99.90;;;;;;6166035;23;20051;-84
2023/04/12 04:06:09;;;;;;;4.80;1.60;;;8.90;99.90;;;;;;6165823;23;20004;-85
2023/04/12 04:08:36;;;;;;;4.35;1.55;;;8.90;99.90;;;;;;6191396;23;20084;-86
2023/04/12 04:11:02;;;;;;;5.75;1.30;;;8.90;99.90;;;;;;6166059;23;20015;-86
2023/04/12 04:13:27;;;;;;;7.40;1.98;;;8.90;99.90;;;;;;6190503;23;20020;-86
2023/04/12 04:16:03;;;;;;;5.88;1.67;;;8.90;99.90;;;;;;6190766;23;20027;-86
2023/04/12 04:18:29;;;;;;;10.35;1.95;;;8.80;99.90;;;;;;6190314;23;20005;-86
2023/04/12 04:20:55;;;;;;;9.40;1.90;;;8.80;99.90;;;;;;6191091;23;20079;-86
2023/04/12 04:23:22;;;;;;;4.95;1.30;;;8.80;99.90;;;;;;6190872;23;20069;-87
2023/04/12 04:25:48;;;;;;;5.05;1.70;;;8.80;99.90;;;;;;6166262;23;20036;-86
2023/04/12 04:28:17;;;;;;;3.90;1.70;;;8.80;99.90;;;;;;6166150;23;20013;-87
2023/04/12 04:30:45;;;;;;;6.15;1.65;;;8.70;99.90;;;;;;6167035;23;20007;-87
2023/04/12 04:33:11;;;;;;;6.45;1.60;;;8.70;99.90;;;;;;6173992;23;20011;-87
2023/04/12 04:35:41;;;;;;;6.00;2.17;;;8.70;99.90;;;;;;6168805;23;20005;-87
2023/04/12 04:38:07;;;;;;;5.95;1.77;;;8.70;99.90;;;;;;6167192;23;20001;-87
2023/04/12 04:40:35;;;;;;;9.07;2.03;;;8.70;99.90;;;;;;6217277;23;20005;-87
2023/04/12 04:43:00;;;;;;;5.80;1.88;;;8.70;99.90;;;;;;6166585;23;20000;-87
2023/04/12 04:45:26;;;;;;;4.53;1.85;;;8.70;99.90;;;;;;6165767;23;20016;-87
2023/04/12 04:47:58;;;;;;;7.03;1.50;;;8.60;99.90;;;;;;6165565;23;20040;-87
2023/04/12 04:50:25;;;;;;;6.28;1.90;;;8.60;99.90;;;;;;6167039;23;20015;-88
2023/04/12 04:52:51;;;;;;;6.78;1.92;;;8.60;99.90;;;;;;6166012;23;20001;-86
2023/04/12 04:55:17;;;;;;;4.88;1.80;;;8.60;99.90;;;;;;6191053;23;20047;-87
2023/04/12 04:57:43;;;;;;;5.68;2.10;;;8.60;99.90;;;;;;6217105;23;20050;-87
2023/04/12 05:00:10;;;;;;;6.93;1.63;;;8.60;99.90;;;;;;6192829;23;20398;-87
2023/04/12 05:02:44;;;;;;;3.35;1.80;;;8.50;99.90;;;;;;6193052;23;20031;-88
2023/04/12 05:05:14;;;;;;;11.13;2.63;;;8.50;99.90;;;;;;6192559;23;20001;-88
2023/04/12 05:07:42;;;;;;;6.65;1.90;;;8.50;99.90;;;;;;6166925;23;20078;-88
2023/04/12 05:10:12;;;;;;;4.95;1.55;;;8.50;99.90;;;;;;6192782;23;20008;-92
2023/04/12 05:12:41;;;;;;;6.95;1.92;;;8.50;99.90;;;;;;6192615;23;20007;-89
2023/04/12 05:18:28;;;;;;;5.47;1.80;;;8.50;99.90;;;;;;6218776;23;20019;-88
2023/04/12 05:20:54;;;;;;;5.82;1.80;;;8.50;99.90;;;;;;6168171;23;20091;-88
2023/04/12 05:23:20;;;;;;;8.20;2.40;;;8.40;99.90;;;;;;6192727;23;20009;-89
2023/04/12 05:25:54;;;;;;;4.88;1.85;;;8.40;99.90;;;;;;6192886;23;20004;-89
2023/04/12 05:28:20;;;;;;;5.57;2.17;;;8.40;99.90;;;;;;6168876;23;20059;-89
2023/04/12 05:30:48;;;;;;;4.68;1.70;;;8.50;99.90;;;;;;6193793;23;20009;-91
2023/04/12 05:33:14;;;;;;;7.53;2.00;;;8.40;99.90;;;;;;6200854;23;19989;-88
2023/04/12 05:35:45;;;;;;;5.50;1.70;;;8.50;99.90;;;;;;6241404;23;20001;-87
2023/04/12 05:38:11;;;;;;;6.85;1.77;;;8.40;99.90;;;;;;6193745;23;20005;-89
2023/04/12 05:40:37;;;;;;;4.57;1.80;;;8.40;99.90;;;;;;6193248;23;20011;-89
2023/04/12 05:46:28;;;;;;;5.55;1.98;;;8.40;99.90;;;;;;6219355;23;20028;-89
2023/04/12 05:49:39;;;;;;;5.05;2.15;;;8.40;99.90;;;;;;6168389;23;20019;-88
2023/04/12 05:52:07;;;;;;;4.18;1.75;;;8.40;99.90;;;;;;6193697;23;20036;-88
2023/04/12 05:54:33;;;;;;;10.20;2.15;;;8.50;99.90;;;;;;6192770;23;20035;-91
2023/04/12 05:57:02;;;;;;;3.85;1.77;;;8.40;99.90;;;;;;6168460;23;20149;-89
2023/04/12 05:59:28;;;;;;;5.97;1.88;;;8.40;99.90;;;;;;6193132;23;20036;-90
2023/04/12 06:01:54;;;;;;;4.72;2.13;;;8.40;99.90;;;;;;6193580;23;20015;-89
2023/04/12 06:04:23;;;;;;;4.47;2.20;;;8.40;99.90;;;;;;6219415;23;20478;-89
2023/04/12 06:06:56;;;;;;;5.80;2.10;;;8.40;99.90;;;;;;6168986;23;20004;-89
2023/04/12 06:09:25;;;;;;;5.82;2.00;;;8.40;99.90;;;;;;6191997;23;20005;-88
2023/04/12 06:11:52;;;;;;;3.50;1.80;;;8.50;99.90;;;;;;6166847;23;20001;-89
2023/04/12 06:14:17;;;;;;;4.22;2.13;;;8.50;99.90;;;;;;6193220;23;20030;-89
2023/04/12 06:16:43;;;;;;;5.75;3.25;;;8.50;99.90;;;;;;6192467;23;20387;-90
2023/04/12 06:19:10;;;;;;;5.75;2.30;;;8.50;99.90;;;;;;6167488;23;20019;-87
2023/04/12 06:21:35;;;;;;;4.45;2.45;;;8.50;99.90;;;;;;6192452;23;20000;-90
2023/04/12 06:24:01;;;;;;;5.55;2.30;;;8.50;99.90;;;;;;6192041;23;20007;-91
2023/04/12 06:26:37;;;;;;;5.65;2.40;;;8.50;99.90;;;;;;6192679;23;20076;-92
2023/04/12 06:29:03;;;;;;;8.73;2.45;;;8.50;99.90;;;;;;6193539;23;20039;-90
2023/04/12 06:35:28;;;;;;;4.03;1.80;;;8.60;99.90;;;;;;6234602;23;20004;-90
2023/04/12 06:38:19;;;;;;;4.15;1.73;;;8.60;99.90;;;;;;6195323;23;20007;-90
2023/04/12 06:44:12;;;;;;;2.65;1.60;;;8.60;99.90;;;;;;6223374;23;20070;-90
2023/04/12 06:47:43;;;;;;;3.70;1.40;;;8.60;99.90;;;;;;6161112;23;20032;-90
2023/04/12 06:50:17;;;;;;;3.67;1.52;;;8.60;99.90;;;;;;6185225;23;20013;-91
2023/04/12 06:52:46;;;;;;;3.85;1.95;;;8.60;99.90;;;;;;6162289;23;20015;-92
2023/04/12 06:55:12;;;;;;;3.63;2.08;;;8.60;99.90;;;;;;6163287;23;20430;-89
2023/04/12 06:57:43;;;;;;;2.92;1.92;;;8.60;99.90;;;;;;6162756;23;20001;-89
2023/04/12 07:00:12;;;;;;;2.75;2.28;;;8.60;99.90;;;;;;6137888;23;20055;-90
2023/04/12 07:02:40;;;;;;;3.13;2.20;;;8.60;99.90;;;;;;6162783;23;20009;-90
2023/04/12 07:05:21;;;;;;;4.15;2.22;;;8.60;99.90;;;;;;6162071;23;20087;-90
2023/04/12 07:07:49;;;;;;;3.65;2.00;;;8.70;99.90;;;;;;6137494;23;20013;-89
2023/04/12 07:10:15;;;;;;;7.38;2.58;;;8.70;99.90;;;;;;6137197;23;20040;-91
2023/04/12 07:12:41;;;;;;;7.85;2.85;;;8.70;99.90;;;;;;6161671;23;20001;-90
2023/04/12 07:15:14;;;;;;;5.40;3.30;;;8.70;99.90;;;;;;6162489;23;20400;-89
2023/04/12 07:17:42;;;;;;;5.43;2.72;;;8.70;99.90;;;;;;6163147;23;20032;-89
2023/04/12 07:20:09;;;;;;;4.88;3.50;;;8.70;99.90;;;;;;6161521;23;20009;-90
2023/04/12 07:22:35;;;;;;;4.72;3.20;;;8.70;99.90;;;;;;6161785;23;20005;-90
2023/04/12 07:25:08;;;;;;;4.82;3.25;;;8.80;99.90;;;;;;6161359;23;19997;-90
2023/04/12 07:27:39;;;;;;;7.22;3.75;;;8.80;99.90;;;;;;6161677;23;19997;-90
2023/04/12 07:30:09;;;;;;;6.47;3.83;;;8.90;99.90;;;;;;6162885;23;20096;-90
2023/04/12 07:32:37;;;;;;;6.85;3.72;;;8.90;99.90;;;;;;6162728;23;20090;-90
2023/04/12 07:35:06;;;;;;;5.38;2.90;;;8.90;99.90;;;;;;6162087;23;20021;-90
2023/04/12 07:37:36;;;;;;;5.75;3.50;;;9.00;99.90;;;;;;6112534;23;20005;-89
2023/04/12 07:40:02;;;;;;;6.50;3.70;;;9.10;99.90;;;;;;6161950;23;20005;-90
2023/04/12 07:42:28;;;;;;;7.05;3.58;;;9.10;99.90;;;;;;6161613;23;20075;-89
2023/04/12 07:44:54;;;;;;;5.65;3.53;;;9.10;99.90;;;;;;6161609;23;20411;-89
2023/04/12 07:47:19;;;;;;;5.55;3.50;;;9.10;99.90;;;;;;6160850;23;20005;-90
2023/04/12 07:49:50;;;;;;;5.97;3.53;;;9.20;99.90;;;;;;6161090;23;20020;-90
2023/04/12 07:52:16;;;;;;;;;;;9.20;99.90;;;;;;6162191;23;20065;-90
2023/04/12 07:54:42;;;;;;;5.85;3.28;;;9.20;99.90;;;;;;6161750;23;19900;-90
2023/04/12 07:57:10;;;;;;;10.48;3.72;;;9.30;99.90;;;;;;6137546;23;20032;-89
2023/04/12 07:59:36;;;;;;;9.00;3.58;;;9.30;99.90;;;;;;6161880;23;20308;-89
2023/04/12 08:02:02;;;;;;;12.40;4.22;;;9.30;99.90;;;;;;6165161;23;20023;-90
2023/04/12 08:04:28;;;;;;;15.10;5.25;;;9.30;99.90;;;;;;6208965;23;20001;-89
2023/04/12 08:06:54;;;;;;;10.60;4.18;;;9.40;99.90;;;;;;6187767;23;20012;-90
2023/04/12 08:13:16;;;;;;;7.10;4.57;;;9.50;99.90;;;;;;6187712;23;20042;-89
2023/04/12 08:15:54;;;;;;;12.55;3.65;;;9.50;99.90;;;;;;6177336;23;20005;-89
2023/04/12 08:18:20;;;;;;;13.88;4.40;;;9.50;99.90;;;;;;6161971;23;20001;-89
2023/04/12 08:23:54;;;;;;;12.60;3.90;;;9.50;99.90;;;;;;6180391;23;20020;-89
2023/04/12 08:26:22;;;;;;;11.38;3.65;;;9.50;99.90;;;;;;6162556;23;20001;-89
2023/04/12 08:28:48;;;;;;;10.95;3.70;;;9.60;99.90;;;;;;6138388;23;20016;-89
2023/04/12 08:31:20;;;;;;;13.57;4.00;;;9.60;99.90;;;;;;6161991;23;20091;-89
2023/04/12 08:33:51;;;;;;;10.15;4.28;;;9.60;99.90;;;;;;6137792;23;20021;-89
2023/04/12 08:36:21;;;;;;;14.05;4.40;;;9.60;99.90;;;;;;6138547;23;20005;-89
2023/04/12 08:38:51;;;;;;;13.10;3.90;;;9.70;99.90;;;;;;6161143;23;20013;-89
2023/04/12 08:41:42;;;;;;;13.57;3.97;;;9.70;99.90;;;;;;6137965;23;20016;-90
2023/04/12 08:44:10;;;;;;;13.20;3.70;;;9.70;99.90;;;;;;6162359;23;20029;-89
2023/04/12 08:46:36;;;;;;;10.38;3.47;;;9.70;99.90;;;;;;6137259;23;20032;-89
2023/04/12 08:49:05;;;;;;;13.32;3.50;;;9.80;99.90;;;;;;6164645;23;20419;-89
2023/04/12 08:51:38;;;;;;;16.50;3.47;;;9.70;99.90;;;;;;6177187;23;20001;-89
2023/04/12 08:54:07;;;;;;;12.98;2.72;;;9.70;99.90;;;;;;6161509;23;20001;-88
2023/04/12 08:56:57;;;;;;;12.85;3.50;;;9.70;99.90;;;;;;6162070;23;20016;-89
2023/04/12 08:59:27;;;;;;;17.58;3.03;;;9.70;99.90;;;;;;6161437;23;20083;-90
2023/04/12 09:02:08;;;;;;;14.10;2.90;;;9.70;99.90;;;;;;6161621;23;20037;-89
2023/04/12 09:07:57;;;;;;;17.67;2.80;;;9.80;99.90;;;;;;6186920;23;20032;-89
2023/04/12 09:14:39;;;;;;;18.38;3.30;;;9.80;99.90;;;;;;6186778;23;20008;-89
2023/04/12 09:30:41;;;;;;;26.35;4.32;;;9.90;99.90;;;;;;6187227;23;20028;-89
2023/04/12 09:33:11;;;;;;;15.10;3.60;;;9.90;99.90;;;;;;6160453;23;20021;-89
2023/04/12 09:35:37;;;;;;;19.60;5.57;;;9.90;99.90;;;;;;6137500;23;20382;-89
2023/04/12 09:38:09;;;;;;;15.50;4.35;;;9.90;99.90;;;;;;6160984;23;19997;-89
2023/04/12 09:40:36;;;;;;;18.13;4.43;;;10.00;99.90;;;;;;6160893;23;20415;-89
2023/04/12 09:43:06;;;;;;;19.75;4.25;;;10.10;99.90;;;;;;6161510;23;20044;-89
2023/04/12 09:45:37;;;;;;;18.77;4.05;;;10.20;99.90;;;;;;6161598;23;20005;-89
2023/04/12 09:55:09;;;;;;;15.20;4.82;;;10.40;99.90;;;;;;6220067;23;20011;-90
2023/04/12 10:01:04;;;;;;;20.42;4.22;;;10.60;99.90;;;;;;6242899;23;20019;-89
2023/04/12 10:03:30;;;;;;;16.90;4.15;;;10.70;99.90;;;;;;6209965;23;20031;-89
2023/04/12 10:05:56;;;;;;;18.58;4.00;;;10.70;99.90;;;;;;6194538;23;20004;-89
2023/04/12 10:08:23;;;;;;;21.13;4.38;;;10.80;99.90;;;;;;6192794;23;20024;-89
2023/04/12 10:10:48;;;;;;;25.33;4.65;;;10.90;99.90;;;;;;6192041;23;20003;-88
2023/04/12 10:13:16;;;;;;;25.67;4.75;;;11.00;99.90;;;;;;6192238;23;20005;-89
2023/04/12 10:15:45;;;;;;;18.73;4.05;;;11.00;99.90;;;;;;6192167;23;20047;-86
2023/04/12 10:18:14;;;;;;;19.48;4.60;;;11.10;99.90;;;;;;6191377;23;19997;-86
2023/04/12 10:20:42;;;;;;;17.33;4.82;;;11.10;99.90;;;;;;6190065;23;20020;-88
2023/04/12 10:23:11;;;;;;;17.42;4.07;;;11.10;99.90;;;;;;6191138;23;20001;-88
2023/04/12 10:25:47;;;;;;;17.30;4.72;;;11.10;99.90;;;;;;6191991;23;20001;-89
2023/04/12 10:28:20;;;;;;;22.73;4.80;;;11.10;99.90;;;;;;6191453;23;20035;-87
2023/04/12 10:30:51;;;;;;;20.75;4.32;;;11.00;99.90;;;;;;6191851;23;20032;-88
2023/04/12 10:33:19;;;;;;;23.40;5.20;;;11.00;99.90;;;;;;6192061;23;20104;-87
2023/04/12 10:36:17;;;;;;;20.35;4.68;;;11.10;99.90;;;;;;6199629;23;19996;-88
2023/04/12 10:38:47;;;;;;;16.02;4.22;;;11.20;99.90;;;;;;6191379;22;20016;-88
2023/04/12 10:41:16;;;;;;;21.88;5.55;;;11.20;99.90;;;;;;6204562;23;20008;-88
2023/04/12 10:43:46;;;;;;;22.08;4.80;;;11.20;99.90;;;;;;6191930;23;20012;-87
2023/04/12 10:46:37;;;;;;;18.67;4.75;;;11.30;99.90;;;;;;6191614;23;20004;-88
2023/04/12 10:49:09;;;;;;;21.40;4.47;;;11.40;99.90;;;;;;6191154;23;20017;-87
2023/04/12 10:51:35;;;;;;;17.60;3.95;;;11.50;99.90;;;;;;6191875;23;20061;-87
2023/04/12 10:54:10;;;;;;;20.85;4.72;;;11.50;99.90;;;;;;6191131;23;20095;-88
2023/04/12 10:56:46;;;;;;;19.30;5.22;;;11.40;99.90;;;;;;6191750;23;20437;-87
2023/04/12 10:59:15;;;;;;;20.20;3.90;;;11.40;99.90;;;;;;6205344;23;20000;-87
2023/04/12 11:02:04;;;;;;;16.25;3.60;;;11.40;99.90;;;;;;6191474;23;20327;-87
2023/04/12 11:04:30;;;;;;;19.42;4.30;;;11.30;99.90;;;;;;6191870;23;20008;-87
2023/04/12 11:07:00;;;;;;;16.40;4.43;;;11.40;99.90;;;;;;6191519;23;20530;-86
2023/04/12 11:09:28;;;;;;;14.77;4.10;;;11.40;99.90;;;;;;6190988;23;20040;-86
2023/04/12 11:12:14;;;;;;;20.77;4.03;;;11.40;99.90;;;;;;6191499;23;20051;-87
2023/04/12 11:14:48;;;;;;;18.25;4.30;;;11.50;99.90;;;;;;6191396;23;20005;-86
2023/04/12 11:17:14;;;;;;;14.30;3.28;;;11.50;99.90;;;;;;6217355;23;20001;-86
2023/04/12 11:19:45;;;;;;;18.83;3.72;;;11.50;99.90;;;;;;6217767;23;20036;-85
2023/04/12 11:22:13;;;;;;;21.75;5.85;;;11.50;99.90;;;;;;6190862;23;20005;-86
2023/04/12 11:24:47;;;;;;;21.67;4.57;;;11.40;99.90;;;;;;6215732;23;20011;-90
2023/04/12 11:27:15;;;;;;;15.95;3.95;;;11.40;99.90;;;;;;6190819;23;20078;-86
2023/04/12 11:29:42;;;;;;;18.38;3.85;;;11.50;99.90;;;;;;6191588;23;20015;-85
2023/04/12 11:32:13;;;;;;;15.93;4.25;;;11.40;99.90;;;;;;6191388;23;20009;-86
2023/04/12 11:34:40;;;;;;;22.23;3.58;;;11.40;99.90;;;;;;6191710;23;20039;-86
2023/04/12 11:37:07;;;;;;;17.48;3.42;;;11.50;99.90;;;;;;6190981;23;20004;-87
2023/04/12 11:39:42;;;;;;;21.52;4.15;;;11.50;99.90;;;;;;6216879;23;20008;-86
2023/04/12 11:42:14;;;;;;;22.73;4.13;;;11.50;99.90;;;;;;6191806;23;20009;-85
2023/04/12 11:44:40;;;;;;;19.85;4.70;;;11.60;99.90;;;;;;6191465;23;20414;-86
2023/04/12 11:47:13;;;;;;;14.80;3.75;;;11.60;99.90;;;;;;6191260;23;20012;-86
2023/04/12 11:49:46;;;;;;;14.45;3.30;;;11.60;99.90;;;;;;6190950;23;20099;-86
2023/04/12 11:52:13;;;;;;;17.13;3.40;;;11.60;99.90;;;;;;6190996;23;20046;-87
2023/04/12 11:54:46;;;;;;;15.70;3.58;;;11.70;99.90;;;;;;6216480;23;20001;-86
2023/04/12 11:57:14;;;;;;;17.00;3.42;;;11.70;99.90;;;;;;6219424;23;19996;-88
2023/04/12 11:59:54;;;;;;;14.10;3.10;;;11.70;99.90;;;;;;6192241;23;20005;-87
2023/04/12 12:02:20;;;;;;;20.35;4.88;;;11.70;99.90;;;;;;6193069;23;20032;-88
2023/04/12 12:04:47;;;;;;;18.20;3.63;;;11.60;99.90;;;;;;6193626;23;20009;-87
2023/04/12 12:07:15;;;;;;;16.90;3.13;;;11.60;99.90;;;;;;6181319;23;20005;-88
2023/04/12 12:09:42;;;;;;;15.10;3.05;;;11.70;99.90;;;;;;6210876;23;20011;-88
2023/04/12 12:12:10;;;;;;;16.13;2.97;;;11.70;99.90;;;;;;6209906;23;20005;-87
2023/04/12 12:14:36;;;;;;;13.27;3.00;;;11.70;99.90;;;;;;6229837;23;20146;-87
2023/04/12 12:17:15;;;;;;;17.30;3.53;;;11.60;99.90;;;;;;6196918;23;20407;-87
2023/04/12 12:19:43;;;;;;;12.48;2.60;;;11.60;99.90;;;;;;6195494;23;20004;-89
2023/04/12 12:22:19;;;;;;;16.88;3.17;;;11.60;99.90;;;;;;6192886;23;20012;-87
2023/04/12 12:24:50;;;;;;;16.33;3.20;;;11.60;99.90;;;;;;6192349;23;20055;-88
2023/04/12 12:27:29;;;;;;;18.58;3.45;;;11.70;99.90;;;;;;6191704;23;20032;-88
2023/04/12 12:30:01;;;;;;;13.60;2.50;;;11.70;99.90;;;;;;6190983;23;20007;-90
2023/04/12 12:32:40;;;;;;;8.95;2.50;;;11.80;99.90;;;;;;6191612;23;20042;-87
2023/04/12 12:35:12;;;;;;;14.93;2.80;;;11.90;99.90;;;;;;6191131;23;20030;-88
2023/04/12 12:37:49;;;;;;;16.60;2.92;;;12.00;99.90;;;;;;6190751;23;20020;-88
2023/04/12 12:40:26;;;;;;;11.18;2.30;;;12.00;99.90;;;;;;6190526;23;20050;-89
2023/04/12 12:42:55;;;;;;;14.48;2.65;;;12.10;99.90;;;;;;6190902;23;20060;-87
2023/04/12 12:45:28;;;;;;;16.30;2.55;;;12.30;99.90;;;;;;6190329;23;19997;-87
2023/04/12 12:48:04;;;;;;;14.35;3.20;;;12.30;99.90;;;;;;6191540;23;19997;-87
2023/04/12 12:50:32;;;;;;;11.85;2.28;;;12.40;99.90;;;;;;6190809;23;20024;-87
2023/04/12 12:53:09;;;;;;;13.30;2.33;;;12.60;99.90;;;;;;6190642;23;20009;-88
2023/04/12 12:55:37;;;;;;;12.25;2.20;;;12.70;99.90;;;;;;6191259;23;20005;-88
2023/04/12 13:01:40;;;;;;;10.63;2.35;;;12.80;99.90;;;;;;6216462;23;20431;-88
2023/04/12 13:04:06;;;;;;;10.73;1.60;;;12.80;99.90;;;;;;6217520;23;20005;-88
2023/04/12 13:06:42;;;;;;;7.93;1.92;;;12.60;99.90;;;;;;6208565;22;20008;-86
2023/04/12 13:09:15;;;;;;;10.18;1.80;;;12.50;99.90;;;;;;6217335;22;20051;-88
2023/04/12 13:15:10;;;;;;;14.60;4.35;;;12.20;99.90;;;;;;6219503;23;20035;-87
2023/04/12 13:17:36;;;;;;;10.27;1.90;;;12.10;99.90;;;;;;6191460;23;20359;-87
2023/04/12 13:20:02;;;;;;;9.40;1.90;;;12.00;99.90;;;;;;6166869;23;20012;-87
2023/04/12 13:26:19;;;;;;;9.88;1.67;;;11.90;99.90;;;;;;6225477;23;20003;-88
2023/04/12 13:32:18;;;;;;;8.70;1.45;;;11.70;99.90;;;;;;6237909;23;20039;-88
2023/04/12 13:38:12;;;;;;;10.85;2.00;;;11.70;99.90;;;;;;6219043;23;20091;-88
2023/04/12 13:40:37;;;;;;;7.90;1.75;;;11.60;99.90;;;;;;6192358;23;20001;-87
2023/04/12 13:43:10;;;;;;;11.20;2.17;;;11.60;99.90;;;;;;6192852;23;20062;-87
2023/04/12 13:45:36;;;;;;;9.55;1.92;;;11.60;99.90;;;;;;6192345;23;19996;-88
2023/04/12 13:48:02;;;;;;;12.23;3.42;;;11.70;99.90;;;;;;6192144;23;20058;-88
2023/04/12 13:50:27;;;;;;;10.27;3.20;;;11.70;99.90;;;;;;6187125;23;20005;-87
2023/04/12 13:52:53;;;;;;;10.82;2.30;;;11.70;99.90;;;;;;6163137;23;20048;-88
2023/04/12 13:55:21;;;;;;;9.90;2.38;;;11.70;99.90;;;;;;6137465;23;20371;-87
2023/04/12 13:57:47;;;;;;;8.60;2.00;;;11.70;99.90;;;;;;6162793;23;20001;-87
2023/04/12 14:00:14;;;;;;;8.60;1.70;;;11.70;99.90;;;;;;6137769;23;20083;-88
2023/04/12 14:03:00;;;;;;;7.50;1.65;;;11.70;99.90;;;;;;6163527;23;20005;-87
2023/04/12 14:05:28;;;;;;;5.10;1.60;;;11.70;99.90;;;;;;6137971;23;20095;-88
2023/04/12 14:07:54;;;;;;;7.43;1.33;;;11.70;99.90;;;;;;6138721;23;20001;-88
2023/04/12 14:10:38;;;;;;;8.40;1.80;;;11.70;99.90;;;;;;6162644;23;20003;-87
2023/04/12 14:19:54;;;;;;;8.82;1.48;;;11.70;99.90;;;;;;6188824;23;20016;-88